Time;durP1;ratioP1;P1;durP2;ratioP2;P2;SDS_P1;SDS_P2;PMS_P1;PMS_P2;Temp;Humidity;BMP_temperature;BMP_pressure;BME280_temperature;BME280_humidity;BME280_pressure;Samples;Min_cycle;Max_cycle;Signal;HPM_P1;HPM_P2
2022/05/19 03:02:58;;;;;;;0.67;0.60;;;19.60;63.60;;;;;;4989024;23;20493;-69
2022/05/19 03:05:28;;;;;;;0.70;0.63;;;19.60;63.50;;;;;;4973670;28;20829;-69
2022/05/19 03:07:55;;;;;;;0.70;0.60;;;19.60;63.50;;;;;;4974995;28;20442;-70
2022/05/19 03:10:23;;;;;;;0.70;0.60;;;19.60;63.60;;;;;;4973781;28;20513;-70
2022/05/19 03:15:15;;;;;;;0.90;0.60;;;19.70;63.10;;;;;;5090363;23;20589;-75
2022/05/19 03:17:43;;;;;;;0.70;0.60;;;19.60;63.00;;;;;;4973928;28;20582;-75
2022/05/19 03:20:12;;;;;;;0.60;0.50;;;19.70;62.90;;;;;;4974205;28;20453;-75
2022/05/19 03:22:39;;;;;;;0.60;0.60;;;19.60;62.90;;;;;;4974157;28;20442;-75
2022/05/19 03:25:08;;;;;;;0.80;0.80;;;19.60;62.90;;;;;;4974018;28;20524;-75
2022/05/19 03:27:36;;;;;;;0.70;0.60;;;19.60;62.70;;;;;;4974605;28;20438;-75
2022/05/19 03:30:04;;;;;;;0.70;0.60;;;19.60;62.70;;;;;;4973949;28;20485;-75
2022/05/19 03:32:31;;;;;;;1.20;0.57;;;19.60;62.50;;;;;;4974059;28;20471;-76
2022/05/19 03:34:58;;;;;;;0.60;0.60;;;19.60;62.40;;;;;;4973941;28;20470;-75
2022/05/19 03:37:26;;;;;;;0.70;0.60;;;19.60;62.40;;;;;;4974045;28;20449;-76
2022/05/19 03:39:52;;;;;;;0.70;0.70;;;19.60;62.70;;;;;;4975701;28;20501;-75
2022/05/19 03:42:19;;;;;;;0.80;0.60;;;19.70;62.40;;;;;;4977496;28;20500;-75
2022/05/19 03:44:46;;;;;;;0.60;0.60;;;19.70;62.40;;;;;;4977079;28;20824;-75
2022/05/19 03:47:13;;;;;;;0.70;0.60;;;19.70;62.40;;;;;;4977471;28;20450;-75
2022/05/19 03:49:39;;;;;;;0.70;0.60;;;19.60;62.30;;;;;;4977421;28;20477;-75
2022/05/19 03:52:07;;;;;;;0.93;0.70;;;19.60;62.70;;;;;;4977561;28;20454;-75
2022/05/19 03:54:35;;;;;;;0.70;0.60;;;19.60;63.00;;;;;;4977244;28;20560;-75
2022/05/19 03:57:02;;;;;;;0.70;0.70;;;19.50;63.10;;;;;;4977957;28;20445;-75
2022/05/19 03:59:28;;;;;;;0.70;0.70;;;19.50;63.40;;;;;;4977155;28;20446;-75
2022/05/19 04:01:55;;;;;;;0.70;0.70;;;19.50;63.50;;;;;;4977431;28;20509;-75
2022/05/19 04:04:22;;;;;;;0.87;0.60;;;19.50;63.70;;;;;;4976998;28;20474;-75
2022/05/19 04:06:48;;;;;;;0.70;0.60;;;19.50;63.70;;;;;;4976716;28;20899;-75
2022/05/19 04:09:15;;;;;;;0.67;0.60;;;19.50;63.80;;;;;;4976911;28;20537;-75
2022/05/19 04:11:43;;;;;;;0.70;0.60;;;19.50;63.60;;;;;;4976689;28;20438;-72
2022/05/19 04:14:11;;;;;;;0.70;0.70;;;19.50;64.00;;;;;;4976589;28;20478;-73
2022/05/19 04:16:38;;;;;;;0.70;0.60;;;19.50;64.10;;;;;;4976837;28;20475;-73
2022/05/19 04:19:05;;;;;;;1.37;0.60;;;19.50;64.20;;;;;;4977337;28;20505;-73
2022/05/19 04:21:32;;;;;;;0.70;0.70;;;19.60;64.40;;;;;;4976741;28;20553;-73
2022/05/19 04:23:59;;;;;;;0.70;0.63;;;19.60;64.10;;;;;;4976626;28;20469;-73
2022/05/19 04:26:26;;;;;;;0.70;0.70;;;19.60;64.50;;;;;;4976656;28;20645;-73
2022/05/19 04:28:54;;;;;;;0.70;0.70;;;19.60;64.20;;;;;;4976575;28;20484;-73
2022/05/19 04:31:22;;;;;;;0.60;0.60;;;19.70;64.50;;;;;;4976557;28;20536;-73
2022/05/19 04:33:48;;;;;;;0.80;0.80;;;19.80;64.20;;;;;;4976449;28;20470;-73
2022/05/19 04:36:15;;;;;;;0.60;0.60;;;19.80;64.00;;;;;;4976119;28;21013;-73
2022/05/19 04:38:41;;;;;;;0.70;0.60;;;19.90;64.00;;;;;;4976110;28;20869;-73
2022/05/19 04:41:08;;;;;;;0.70;0.70;;;20.00;64.30;;;;;;4976573;28;20515;-73
2022/05/19 04:43:35;;;;;;;0.80;0.70;;;20.10;64.20;;;;;;4976849;28;20540;-73
2022/05/19 04:46:03;;;;;;;0.80;0.70;;;20.20;64.20;;;;;;4976360;28;20504;-73
2022/05/19 04:48:29;;;;;;;0.70;0.60;;;20.20;64.10;;;;;;4976332;28;20482;-73
2022/05/19 04:50:58;;;;;;;0.70;0.63;;;20.20;64.10;;;;;;4975480;28;20489;-73
2022/05/19 04:53:26;;;;;;;0.70;0.70;;;19.90;64.90;;;;;;4976112;28;20474;-75
2022/05/19 04:55:53;;;;;;;0.70;0.70;;;19.50;65.90;;;;;;4976176;28;20450;-73
2022/05/19 04:58:21;;;;;;;0.70;0.60;;;19.40;66.60;;;;;;4976115;28;20453;-73
2022/05/19 05:00:48;;;;;;;0.90;0.70;;;19.40;66.30;;;;;;4975762;28;20446;-73
2022/05/19 05:03:17;;;;;;;1.03;0.77;;;19.40;66.60;;;;;;4976003;28;20493;-73
2022/05/19 05:05:45;;;;;;;0.60;0.60;;;19.60;66.30;;;;;;4975975;28;20450;-73
2022/05/19 05:08:12;;;;;;;0.70;0.60;;;19.70;64.90;;;;;;4975889;28;20871;-73
2022/05/19 05:10:39;;;;;;;0.70;0.70;;;19.90;65.50;;;;;;4975791;28;20618;-74
2022/05/19 05:13:07;;;;;;;0.70;0.70;;;20.00;64.70;;;;;;4975438;28;20972;-73
2022/05/19 05:15:34;;;;;;;0.97;0.80;;;20.20;64.70;;;;;;4975837;28;20450;-73
2022/05/19 05:18:01;;;;;;;0.60;0.60;;;20.10;65.00;;;;;;4975737;28;20570;-73
2022/05/19 05:20:29;;;;;;;0.70;0.60;;;20.00;65.10;;;;;;4975663;28;20446;-73
2022/05/19 05:22:55;;;;;;;0.60;0.60;;;20.00;64.50;;;;;;4975590;28;20800;-73
2022/05/19 05:25:22;;;;;;;0.70;0.60;;;19.80;65.30;;;;;;4975284;28;20446;-73
2022/05/19 05:27:49;;;;;;;0.63;0.60;;;20.00;65.30;;;;;;4975538;28;20493;-73
2022/05/19 05:30:16;;;;;;;0.70;0.70;;;20.20;64.60;;;;;;4975400;28;20533;-73
2022/05/19 05:32:43;;;;;;;2.30;0.70;;;20.20;64.80;;;;;;4975427;28;20446;-73
2022/05/19 05:35:11;;;;;;;0.80;0.63;;;20.10;64.80;;;;;;4975272;28;20897;-73
2022/05/19 05:37:39;;;;;;;0.77;0.60;;;20.20;64.60;;;;;;4975391;28;20450;-73
2022/05/19 05:40:07;;;;;;;0.87;0.70;;;20.30;64.30;;;;;;4975332;28;20497;-74
2022/05/19 05:42:34;;;;;;;0.60;0.60;;;20.50;64.00;;;;;;4974912;28;20533;-74
2022/05/19 05:45:01;;;;;;;0.70;0.67;;;20.30;64.00;;;;;;4974686;28;20896;-73
2022/05/19 05:47:28;;;;;;;0.70;0.60;;;20.10;65.20;;;;;;4975190;28;20874;-74
2022/05/19 05:49:55;;;;;;;0.70;0.70;;;20.30;65.00;;;;;;4975035;28;20477;-74
2022/05/19 05:52:22;;;;;;;0.80;0.80;;;20.50;64.40;;;;;;4975002;28;20537;-74
2022/05/19 05:54:50;;;;;;;0.70;0.60;;;20.70;63.60;;;;;;4974618;28;20989;-74
2022/05/19 05:57:17;;;;;;;0.97;0.60;;;20.80;62.70;;;;;;4974963;28;20450;-73
2022/05/19 05:59:44;;;;;;;0.70;0.60;;;20.80;63.70;;;;;;4974547;28;20942;-73
2022/05/19 06:02:11;;;;;;;0.70;0.70;;;21.00;63.80;;;;;;4976041;28;20446;-74
2022/05/19 06:04:38;;;;;;;0.70;0.60;;;21.10;63.60;;;;;;4982341;28;20870;-74
2022/05/19 06:07:05;;;;;;;0.70;0.60;;;21.20;63.30;;;;;;4978024;28;20878;-74
2022/05/19 06:09:31;;;;;;;0.70;0.60;;;21.40;61.90;;;;;;4974795;28;20454;-74
2022/05/19 06:11:59;;;;;;;0.70;0.60;;;21.40;63.60;;;;;;4974737;28;20544;-73
2022/05/19 06:14:26;;;;;;;1.10;0.60;;;21.50;63.10;;;;;;4974335;28;20493;-74
2022/05/19 06:16:53;;;;;;;0.60;0.60;;;21.70;62.40;;;;;;4974736;28;20524;-74
2022/05/19 06:19:19;;;;;;;0.70;0.70;;;21.90;62.60;;;;;;4974621;28;20458;-74
2022/05/19 06:21:48;;;;;;;0.73;0.70;;;21.80;61.20;;;;;;4974349;28;20942;-74
2022/05/19 06:24:15;;;;;;;0.80;0.70;;;21.50;62.30;;;;;;4974260;28;20990;-74
2022/05/19 06:26:41;;;;;;;0.60;0.60;;;21.40;63.10;;;;;;4974641;28;20445;-71
2022/05/19 06:29:10;;;;;;;0.80;0.80;;;21.60;62.60;;;;;;4974728;28;20509;-70
2022/05/19 06:31:37;;;;;;;0.70;0.70;;;21.90;63.20;;;;;;4974233;28;20478;-74
2022/05/19 06:34:04;;;;;;;0.90;0.60;;;22.10;62.30;;;;;;4974427;28;20533;-74
2022/05/19 06:36:31;;;;;;;0.70;0.60;;;22.10;61.10;;;;;;4974158;28;20941;-74
2022/05/19 06:38:58;;;;;;;0.70;0.60;;;22.10;60.40;;;;;;4974159;28;20862;-74
2022/05/19 06:44:10;;;;;;;0.70;0.70;;;22.50;61.00;;;;;;4974221;28;20508;-75
2022/05/19 06:46:37;;;;;;;1.67;0.77;;;22.30;61.80;;;;;;4974389;28;20524;-74
2022/05/19 06:49:04;;;;;;;0.90;0.70;;;22.10;62.20;;;;;;4974381;28;20460;-74
2022/05/19 06:51:31;;;;;;;0.70;0.60;;;22.30;62.10;;;;;;4974281;28;20482;-74
2022/05/19 06:53:58;;;;;;;0.80;0.70;;;22.50;61.50;;;;;;4974281;28;20501;-74
2022/05/19 06:56:25;;;;;;;0.70;0.70;;;22.70;60.70;;;;;;4974388;28;20450;-74
2022/05/19 06:58:52;;;;;;;0.60;0.50;;;22.90;61.20;;;;;;4974168;28;20504;-74
2022/05/19 07:01:20;;;;;;;0.80;0.60;;;23.10;60.70;;;;;;4974163;28;20446;-74
2022/05/19 07:03:46;;;;;;;0.70;0.60;;;23.40;60.00;;;;;;4974137;28;20462;-74
2022/05/19 07:06:13;;;;;;;0.60;0.60;;;23.60;59.50;;;;;;4974189;28;20446;-74
2022/05/19 07:08:40;;;;;;;0.70;0.50;;;23.50;58.50;;;;;;4974131;28;20481;-74
2022/05/19 07:11:24;;;;;;;0.70;0.60;;;23.60;59.10;;;;;;4974088;28;20478;-74
2022/05/19 07:13:51;;;;;;;0.70;0.70;;;23.90;59.80;;;;;;4975650;28;20568;-74
2022/05/19 07:16:19;;;;;;;0.70;0.70;;;23.70;59.00;;;;;;4977729;28;21003;-71
2022/05/19 07:18:46;;;;;;;0.60;0.60;;;23.90;59.20;;;;;;4977565;28;20996;-72
2022/05/19 07:21:12;;;;;;;0.97;0.70;;;24.10;58.60;;;;;;4977521;28;20975;-72
2022/05/19 07:23:40;;;;;;;0.70;0.67;;;24.00;58.20;;;;;;4977741;28;20500;-71
2022/05/19 07:26:07;;;;;;;0.80;0.80;;;24.20;59.10;;;;;;4977727;28;20840;-72
2022/05/19 07:28:34;;;;;;;0.80;0.70;;;24.30;58.70;;;;;;4977707;28;20449;-72
2022/05/19 07:31:01;;;;;;;0.60;0.57;;;24.40;58.90;;;;;;4977546;28;20481;-72
2022/05/19 07:33:29;;;;;;;0.70;0.63;;;24.50;58.00;;;;;;4977519;28;20528;-71
2022/05/19 07:35:56;;;;;;;0.70;0.60;;;24.60;57.90;;;;;;4977562;28;20496;-72
2022/05/19 07:38:23;;;;;;;1.27;0.60;;;24.90;57.60;;;;;;4977551;28;20486;-72
2022/05/19 07:40:54;;;;;;;0.70;0.60;;;24.80;56.20;;;;;;4977485;28;20441;-72
2022/05/19 07:43:39;;;;;;;0.70;0.60;;;24.80;57.20;;;;;;4977394;28;20474;-72
2022/05/19 07:46:06;;;;;;;0.80;0.60;;;24.70;57.60;;;;;;4977399;28;20437;-72
2022/05/19 07:48:36;;;;;;;1.23;0.70;;;24.80;57.20;;;;;;4977358;28;20446;-72
2022/05/19 07:51:03;;;;;;;0.87;0.63;;;25.10;57.40;;;;;;4977246;28;20568;-71
2022/05/19 07:53:30;;;;;;;1.20;0.87;;;25.30;56.00;;;;;;4977167;28;20469;-72
2022/05/19 07:55:57;;;;;;;0.80;0.60;;;25.50;56.10;;;;;;4977264;28;20863;-72
2022/05/19 07:58:24;;;;;;;1.00;0.70;;;25.40;56.60;;;;;;4977180;28;20454;-72
2022/05/19 08:00:51;;;;;;;1.23;0.60;;;25.40;57.00;;;;;;4977122;28;20442;-72
2022/05/19 08:03:18;;;;;;;0.60;0.60;;;25.60;57.10;;;;;;4977066;28;20532;-71
2022/05/19 08:05:46;;;;;;;0.90;0.60;;;25.60;57.40;;;;;;4977065;28;20450;-71
2022/05/19 08:08:12;;;;;;;0.70;0.60;;;25.80;55.60;;;;;;4976999;28;20446;-72
2022/05/19 08:10:39;;;;;;;0.70;0.60;;;26.10;54.80;;;;;;4976881;28;20481;-72
2022/05/19 08:15:50;;;;;;;0.60;0.50;;;26.00;53.90;;;;;;4976890;28;20770;-72
2022/05/19 08:18:19;;;;;;;0.70;0.60;;;26.00;54.80;;;;;;4976803;28;20520;-72
2022/05/19 08:20:49;;;;;;;0.80;0.70;;;26.40;55.60;;;;;;4976701;28;20434;-72
2022/05/19 08:23:18;;;;;;;0.70;0.60;;;26.40;54.10;;;;;;4976680;28;20500;-72
2022/05/19 08:25:45;;;;;;;0.70;0.60;;;26.40;53.60;;;;;;4975965;28;20472;-72
2022/05/19 08:28:14;;;;;;;1.00;0.80;;;26.40;53.60;;;;;;4976314;28;20941;-72
2022/05/19 08:30:42;;;;;;;1.00;0.63;;;26.30;54.90;;;;;;4976475;28;20482;-72
2022/05/19 08:33:09;;;;;;;1.10;0.60;;;26.30;54.90;;;;;;4976441;28;20537;-72
2022/05/19 08:35:35;;;;;;;0.70;0.50;;;26.40;56.00;;;;;;4976438;28;20458;-73
2022/05/19 08:38:03;;;;;;;0.80;0.67;;;26.20;55.30;;;;;;4976533;28;20521;-72
2022/05/19 08:40:43;;;;;;;0.70;0.70;;;26.50;56.00;;;;;;4976174;28;20941;-72
2022/05/19 08:43:13;;;;;;;0.67;0.57;;;26.40;55.20;;;;;;4976236;28;20481;-72
2022/05/19 08:45:42;;;;;;;0.70;0.60;;;26.50;55.60;;;;;;4976321;28;20505;-73
2022/05/19 08:48:14;;;;;;;0.60;0.50;;;26.90;55.00;;;;;;4976285;28;20550;-73
2022/05/19 08:50:47;;;;;;;0.80;0.63;;;27.00;54.80;;;;;;4975841;28;20839;-72
2022/05/19 08:53:16;;;;;;;1.30;0.60;;;27.20;57.30;;;;;;4976114;28;20458;-73
2022/05/19 08:55:47;;;;;;;0.80;0.60;;;27.50;53.00;;;;;;4976148;28;20512;-73
2022/05/19 08:58:46;;;;;;;0.80;0.63;;;27.40;52.20;;;;;;4976072;28;20438;-73
2022/05/19 09:01:19;;;;;;;0.77;0.77;;;27.50;55.90;;;;;;4976031;28;20786;-71
2022/05/19 09:03:56;;;;;;;0.80;0.70;;;27.60;53.80;;;;;;4975955;28;20473;-71
2022/05/19 09:07:56;;;;;;;0.60;0.60;;;27.90;53.00;;;;;;4975973;28;20429;-72
2022/05/19 09:09:47;;;;;;;1.00;0.70;;;28.20;53.00;;;;;;4975426;28;20446;-72
2022/05/19 09:12:19;;;;;;;0.70;0.70;;;28.00;52.10;;;;;;4975821;28;20516;-71
2022/05/19 09:14:46;;;;;;;0.70;0.70;;;28.30;51.90;;;;;;5078261;23;20505;-73
2022/05/19 09:17:14;;;;;;;0.60;0.60;;;28.60;53.30;;;;;;4975576;28;20445;-72
2022/05/19 09:19:46;;;;;;;0.70;0.70;;;28.90;51.30;;;;;;4975505;28;20504;-72
2022/05/19 09:22:14;;;;;;;0.60;0.60;;;28.90;51.50;;;;;;4975467;28;20485;-73
2022/05/19 09:24:48;;;;;;;0.80;0.70;;;29.00;53.10;;;;;;4976168;28;20470;-72
2022/05/19 09:27:16;;;;;;;1.63;0.60;;;29.40;51.90;;;;;;4975358;28;20434;-73
2022/05/19 09:29:45;;;;;;;0.70;0.60;;;29.20;50.60;;;;;;4975292;28;20450;-73
2022/05/19 09:32:14;;;;;;;0.70;0.60;;;29.00;53.10;;;;;;4975131;28;20489;-73
2022/05/19 09:34:44;;;;;;;0.60;0.60;;;29.10;51.60;;;;;;4975095;28;20565;-72
2022/05/19 09:37:15;;;;;;;0.80;0.70;;;29.00;53.30;;;;;;4974174;28;20444;-72
2022/05/19 09:39:51;;;;;;;0.70;0.60;;;29.10;50.80;;;;;;4975174;28;20522;-72
2022/05/19 09:42:22;;;;;;;0.60;0.60;;;29.50;52.70;;;;;;4975079;28;20441;-72
2022/05/19 09:44:54;;;;;;;0.70;0.60;;;29.50;53.70;;;;;;4975003;28;20536;-72
2022/05/19 09:47:28;;;;;;;0.70;0.70;;;29.60;52.90;;;;;;4975171;28;20807;-73
2022/05/19 09:49:58;;;;;;;0.70;0.70;;;29.20;52.60;;;;;;4974988;28;20481;-73
2022/05/19 09:52:27;;;;;;;0.90;0.70;;;29.20;53.70;;;;;;4974860;28;20486;-72
2022/05/19 09:55:00;;;;;;;0.80;0.80;;;29.10;53.30;;;;;;4974809;28;20560;-72
2022/05/19 09:57:34;;;;;;;0.70;0.60;;;29.00;52.80;;;;;;4975143;28;20437;-73
2022/05/19 10:00:09;;;;;;;0.60;0.60;;;28.90;53.20;;;;;;4974773;28;20436;-72
2022/05/19 10:02:38;;;;;;;0.80;0.70;;;28.90;53.30;;;;;;4974418;28;20847;-73
2022/05/19 10:05:22;;;;;;;0.70;0.70;;;29.00;55.30;;;;;;4975163;28;20542;-72
2022/05/19 10:07:51;;;;;;;0.70;0.70;;;29.10;53.30;;;;;;4974311;28;20789;-73
2022/05/19 10:10:24;;;;;;;0.80;0.80;;;29.30;55.30;;;;;;4974721;28;20537;-73
2022/05/19 10:12:54;;;;;;;0.80;0.67;;;29.50;52.70;;;;;;4974691;28;20470;-73
2022/05/19 10:15:22;;;;;;;0.70;0.67;;;29.60;53.70;;;;;;4974164;28;21040;-73
2022/05/19 10:18:01;;;;;;;0.90;0.80;;;29.80;54.50;;;;;;4974623;28;20516;-73
2022/05/19 10:20:32;;;;;;;0.70;0.60;;;30.20;51.60;;;;;;4974604;28;20508;-73
2022/05/19 10:23:08;;;;;;;0.70;0.60;;;30.20;51.40;;;;;;4974507;28;20485;-73
2022/05/19 10:25:58;;;;;;;0.80;0.70;;;30.20;50.20;;;;;;4974095;28;20981;-73
2022/05/19 10:31:37;;;;;;;0.70;0.70;;;30.30;52.10;;;;;;4974912;28;20476;-73
2022/05/19 10:34:36;;;;;;;0.70;0.63;;;29.90;52.60;;;;;;4974311;28;20473;-76
2022/05/19 10:37:15;;;;;;;0.63;0.60;;;29.60;53.10;;;;;;4974023;28;20969;-74
2022/05/19 10:40:01;;;;;;;1.27;0.80;;;29.80;53.50;;;;;;4974634;28;20438;-76
2022/05/19 10:42:43;;;;;;;0.70;0.63;;;29.90;54.30;;;;;;4974381;28;20488;-71
2022/05/19 10:45:19;;;;;;;0.63;0.60;;;30.20;51.70;;;;;;4974068;28;20806;-73
2022/05/19 10:47:57;;;;;;;0.60;0.60;;;30.40;52.90;;;;;;4974339;28;20917;-73
2022/05/19 10:50:29;;;;;;;0.90;0.90;;;30.70;51.70;;;;;;4978347;28;20430;-73
2022/05/19 10:53:11;;;;;;;0.70;0.70;;;31.00;50.00;;;;;;4978182;28;20545;-73
2022/05/19 10:55:47;;;;;;;0.70;0.70;;;31.10;48.10;;;;;;4978135;28;20470;-72
2022/05/19 10:58:39;;;;;;;0.60;0.60;;;31.30;51.10;;;;;;4978075;28;20850;-72
2022/05/19 11:01:16;;;;;;;0.60;0.60;;;31.80;52.00;;;;;;4972828;28;20512;-69
2022/05/19 11:04:02;;;;;;;0.70;0.70;;;31.80;50.50;;;;;;4977572;28;20981;-72
2022/05/19 11:06:49;;;;;;;0.77;0.60;;;32.00;51.10;;;;;;4978089;28;20426;-73
2022/05/19 11:09:27;;;;;;;0.90;0.80;;;32.10;47.90;;;;;;4978123;28;20497;-73
2022/05/19 11:12:02;;;;;;;0.70;0.60;;;31.70;48.00;;;;;;4977481;28;20861;-73
2022/05/19 11:14:48;;;;;;;0.87;0.80;;;31.70;48.60;;;;;;4977467;28;21025;-73
2022/05/19 11:17:27;;;;;;;0.70;0.63;;;31.80;45.70;;;;;;4977706;28;20438;-73
2022/05/19 11:20:00;;;;;;;0.70;0.60;;;31.60;49.30;;;;;;4977551;28;20493;-73
2022/05/19 11:22:31;;;;;;;0.70;0.60;;;31.70;48.70;;;;;;4977381;28;20922;-72
2022/05/19 11:27:52;;;;;;;1.47;0.80;;;32.10;49.30;;;;;;4977741;28;20893;-73
2022/05/19 11:30:22;;;;;;;0.63;0.60;;;32.50;48.20;;;;;;4977391;28;20894;-73
2022/05/19 11:32:53;;;;;;;0.80;0.60;;;32.40;48.70;;;;;;4977129;28;20474;-73
2022/05/19 11:35:24;;;;;;;0.90;0.77;;;32.30;46.80;;;;;;4977214;28;20473;-73
2022/05/19 11:37:57;;;;;;;1.33;0.80;;;32.40;47.70;;;;;;4977232;28;20437;-73
2022/05/19 11:40:30;;;;;;;0.70;0.70;;;32.50;47.70;;;;;;4977306;28;20434;-73
2022/05/19 11:43:02;;;;;;;0.70;0.70;;;32.40;47.50;;;;;;4977111;28;20434;-73
2022/05/19 11:45:36;;;;;;;0.70;0.70;;;32.00;49.70;;;;;;4977187;28;20469;-73
2022/05/19 11:56:42;;;;;;;0.70;0.60;;;31.70;51.10;;;;;;4939816;28;20439;-72
2022/05/19 11:59:10;;;;;;;0.60;0.60;;;31.60;49.60;;;;;;4976674;28;20496;-73
2022/05/19 12:01:44;;;;;;;2.60;0.70;;;31.80;50.50;;;;;;4976042;28;20504;-73
2022/05/19 12:04:18;;;;;;;0.63;0.63;;;32.00;49.40;;;;;;4976755;28;20477;-73
2022/05/19 12:06:47;;;;;;;0.80;0.80;;;32.20;49.60;;;;;;4977013;28;20511;-73
2022/05/19 12:09:30;;;;;;;0.70;0.60;;;32.50;49.50;;;;;;4976680;28;20441;-73
2022/05/19 12:11:59;;;;;;;1.00;0.70;;;32.60;48.20;;;;;;4976562;28;20473;-73
2022/05/19 12:14:40;;;;;;;0.80;0.80;;;32.90;48.50;;;;;;4976300;28;20493;-73
2022/05/19 12:17:29;;;;;;;0.70;0.60;;;33.00;47.80;;;;;;4976628;28;20445;-73
2022/05/19 12:19:58;;;;;;;0.70;0.70;;;33.00;46.90;;;;;;4976916;28;20775;-72
2022/05/19 12:22:33;;;;;;;0.67;0.67;;;33.20;46.60;;;;;;4976522;28;20477;-72
2022/05/19 12:25:14;;;;;;;0.80;0.63;;;33.10;45.10;;;;;;4976889;28;20549;-72
2022/05/19 12:27:44;;;;;;;0.60;0.60;;;33.00;45.40;;;;;;4976463;28;20442;-72
2022/05/19 12:33:11;;;;;;;0.60;0.60;;;33.30;43.40;;;;;;4976426;28;20540;-73
2022/05/19 12:35:39;;;;;;;0.70;0.70;;;33.40;41.60;;;;;;4976262;28;20508;-72
2022/05/19 12:38:27;;;;;;;0.80;0.70;;;33.00;40.90;;;;;;4976313;28;20497;-73
2022/05/19 12:40:55;;;;;;;1.00;0.70;;;32.80;42.10;;;;;;4976169;28;20465;-73
2022/05/19 12:43:36;;;;;;;0.70;0.60;;;32.90;40.70;;;;;;4976001;28;20520;-73
2022/05/19 12:46:04;;;;;;;0.80;0.70;;;33.10;42.50;;;;;;4976190;28;20445;-72
2022/05/19 12:48:48;;;;;;;0.93;0.80;;;33.20;41.30;;;;;;4976082;28;20458;-73
2022/05/19 12:51:42;;;;;;;0.90;0.70;;;32.90;41.30;;;;;;4975716;28;20972;-72
2022/05/19 12:54:10;;;;;;;0.70;0.60;;;33.00;42.20;;;;;;4965649;28;20474;-73
2022/05/19 12:57:16;;;;;;;0.70;0.60;;;32.60;41.50;;;;;;4975917;28;20446;-72
2022/05/19 12:59:48;;;;;;;0.67;0.67;;;32.20;41.70;;;;;;4975315;28;20453;-72
2022/05/19 13:02:31;;;;;;;0.70;0.70;;;32.30;44.30;;;;;;4975927;28;20430;-72
2022/05/19 13:05:04;;;;;;;0.70;0.60;;;32.30;41.80;;;;;;4975787;28;20469;-71
2022/05/19 13:07:36;;;;;;;0.60;0.60;;;32.10;42.40;;;;;;4975756;28;20493;-72
2022/05/19 13:10:09;;;;;;;0.60;0.60;;;32.20;43.60;;;;;;4976315;28;20427;-72
2022/05/19 13:12:48;;;;;;;0.70;0.60;;;32.40;42.70;;;;;;4975378;28;20517;-72
2022/05/19 13:15:23;;;;;;;0.60;0.60;;;32.70;42.10;;;;;;4975129;28;20481;-72
2022/05/19 13:17:53;;;;;;;0.90;0.70;;;33.00;41.00;;;;;;4975605;28;20430;-72
2022/05/19 13:20:24;;;;;;;0.70;0.60;;;32.90;42.50;;;;;;4975371;28;20509;-72
2022/05/19 13:22:56;;;;;;;0.80;0.73;;;32.90;42.10;;;;;;4975955;28;20485;-72
2022/05/19 13:25:22;;;;;;;0.70;0.70;;;32.90;39.00;;;;;;4975415;28;20556;-72
2022/05/19 13:30:51;;;;;;;1.10;0.70;;;32.60;40.20;;;;;;4975256;28;20449;-72
2022/05/19 13:33:20;;;;;;;0.83;0.80;;;32.70;41.50;;;;;;4975580;28;20492;-72
2022/05/19 13:35:58;;;;;;;0.80;0.80;;;32.60;40.10;;;;;;4974749;28;20816;-72
2022/05/19 13:38:25;;;;;;;0.70;0.60;;;32.70;41.20;;;;;;4974808;28;20851;-72
2022/05/19 13:40:52;;;;;;;0.70;0.60;;;32.80;39.40;;;;;;4974706;28;20992;-73
2022/05/19 13:43:25;;;;;;;0.70;0.70;;;32.80;40.80;;;;;;4974920;28;20441;-72
2022/05/19 13:45:55;;;;;;;0.67;0.60;;;32.60;40.40;;;;;;4974956;28;20438;-72
2022/05/19 13:48:33;;;;;;;0.70;0.60;;;32.30;40.30;;;;;;4974911;28;20556;-72
2022/05/19 13:51:08;;;;;;;0.73;0.73;;;32.00;41.50;;;;;;4974984;28;20430;-72
2022/05/19 13:53:37;;;;;;;1.43;0.60;;;32.30;41.50;;;;;;4974729;28;20465;-72
2022/05/19 13:56:04;;;;;;;1.03;0.60;;;32.30;42.10;;;;;;4974953;28;20450;-73
2022/05/19 13:58:33;;;;;;;0.70;0.63;;;32.70;42.00;;;;;;4974994;28;20462;-72
2022/05/19 14:01:00;;;;;;;0.70;0.70;;;32.90;42.30;;;;;;4974856;28;20449;-73
2022/05/19 14:03:28;;;;;;;0.70;0.67;;;33.20;42.10;;;;;;4974795;28;20873;-73
2022/05/19 14:05:56;;;;;;;0.70;0.60;;;33.30;39.70;;;;;;4974862;28;20570;-72
2022/05/19 14:08:26;;;;;;;0.80;0.70;;;33.40;40.90;;;;;;4974720;28;21037;-72
2022/05/19 14:10:55;;;;;;;0.70;0.60;;;33.70;40.00;;;;;;4974611;28;20458;-73
2022/05/19 14:13:24;;;;;;;0.70;0.60;;;33.90;40.90;;;;;;4974485;28;20556;-73
2022/05/19 14:15:56;;;;;;;0.60;0.60;;;34.10;39.70;;;;;;4974197;28;20465;-73
2022/05/19 14:18:25;;;;;;;0.70;0.70;;;34.10;39.40;;;;;;4974572;28;20897;-74
2022/05/19 14:20:54;;;;;;;0.70;0.70;;;33.60;39.40;;;;;;4974514;28;20453;-74
2022/05/19 14:23:26;;;;;;;0.70;0.67;;;33.80;41.10;;;;;;4973937;28;20441;-73
2022/05/19 14:25:58;;;;;;;0.80;0.73;;;34.00;40.30;;;;;;4974121;28;20429;-73
2022/05/19 14:28:28;;;;;;;0.67;0.60;;;34.00;39.90;;;;;;4974403;28;20434;-74
2022/05/19 14:30:57;;;;;;;0.70;0.60;;;33.90;39.30;;;;;;4974709;28;20969;-74
2022/05/19 14:33:28;;;;;;;0.97;0.87;;;33.70;39.30;;;;;;4973976;28;21011;-74
2022/05/19 14:36:00;;;;;;;0.70;0.70;;;33.60;40.10;;;;;;4974158;28;20935;-74
2022/05/19 14:38:35;;;;;;;0.70;0.60;;;33.30;40.10;;;;;;4974022;28;20529;-74
2022/05/19 14:43:53;;;;;;;0.70;0.60;;;32.70;41.30;;;;;;4973975;28;20510;-73
2022/05/19 14:46:22;;;;;;;0.60;0.60;;;32.90;41.20;;;;;;4974256;28;20504;-74
2022/05/19 14:48:51;;;;;;;0.60;0.60;;;33.00;41.50;;;;;;4974167;28;20611;-74
2022/05/19 14:51:22;;;;;;;0.70;0.60;;;33.30;42.70;;;;;;4974173;28;20472;-75
2022/05/19 14:53:51;;;;;;;0.77;0.70;;;33.30;44.10;;;;;;4974019;28;20572;-74
2022/05/19 14:56:21;;;;;;;1.03;0.70;;;33.60;44.70;;;;;;4973824;28;20841;-74
2022/05/19 14:58:53;;;;;;;1.40;0.80;;;33.80;45.00;;;;;;4973792;28;20473;-74
2022/05/19 15:01:20;;;;;;;0.70;0.70;;;33.90;44.60;;;;;;4974099;28;20441;-74
2022/05/19 15:03:46;;;;;;;1.67;0.70;;;33.90;44.80;;;;;;4973867;28;20545;-75
2022/05/19 15:06:15;;;;;;;1.30;0.70;;;34.10;44.90;;;;;;4974076;28;20472;-74
2022/05/19 15:08:43;;;;;;;0.80;0.70;;;34.10;46.00;;;;;;4974005;28;20465;-74
2022/05/19 15:11:11;;;;;;;0.70;0.70;;;34.00;46.20;;;;;;4974014;28;20449;-74
2022/05/19 15:13:38;;;;;;;1.00;0.70;;;34.10;46.80;;;;;;4973487;28;20493;-75
2022/05/19 15:16:05;;;;;;;0.80;0.70;;;34.10;46.30;;;;;;5093845;23;20505;-74
2022/05/19 15:18:31;;;;;;;0.60;0.60;;;34.40;45.60;;;;;;4974126;28;20454;-74
2022/05/19 15:20:58;;;;;;;0.67;0.63;;;34.40;44.20;;;;;;4974116;28;20449;-74
2022/05/19 15:23:26;;;;;;;0.93;0.77;;;34.50;45.80;;;;;;4974054;28;20491;-74
2022/05/19 15:25:53;;;;;;;0.80;0.60;;;34.70;44.60;;;;;;4973998;28;20495;-74
2022/05/19 15:28:21;;;;;;;0.70;0.70;;;34.90;45.80;;;;;;4974051;28;20441;-74
2022/05/19 15:30:48;;;;;;;0.70;0.60;;;35.00;45.60;;;;;;4973984;28;20541;-74
2022/05/19 15:33:16;;;;;;;0.80;0.60;;;35.20;45.40;;;;;;4973959;28;20543;-74
2022/05/19 15:35:43;;;;;;;0.90;0.67;;;35.40;44.40;;;;;;4976907;28;20465;-74
2022/05/19 15:38:11;;;;;;;0.90;0.70;;;35.50;44.60;;;;;;4977311;28;20438;-74
2022/05/19 15:40:37;;;;;;;0.80;0.70;;;35.50;43.50;;;;;;4977565;28;20480;-74
2022/05/19 15:43:05;;;;;;;1.00;0.70;;;35.40;44.40;;;;;;4977167;28;21000;-74
2022/05/19 15:45:33;;;;;;;0.70;0.70;;;35.30;44.40;;;;;;4977054;28;20504;-75
2022/05/19 15:48:01;;;;;;;2.60;0.70;;;35.30;44.00;;;;;;4977389;28;20445;-75
2022/05/19 15:50:30;;;;;;;0.70;0.70;;;34.90;43.60;;;;;;4977362;28;20523;-74
2022/05/19 15:52:58;;;;;;;0.80;0.80;;;34.80;45.20;;;;;;4976887;28;20989;-74
2022/05/19 15:55:26;;;;;;;0.70;0.60;;;34.70;44.00;;;;;;4977063;28;20473;-75
2022/05/19 15:57:53;;;;;;;0.70;0.63;;;34.70;44.70;;;;;;4977021;28;20505;-75
2022/05/19 16:00:20;;;;;;;0.90;0.80;;;34.70;44.10;;;;;;4976844;28;20975;-75
2022/05/19 16:02:51;;;;;;;0.90;0.80;;;34.60;44.50;;;;;;4977106;28;20446;-74
2022/05/19 16:05:19;;;;;;;0.70;0.70;;;34.50;44.20;;;;;;4977127;28;20474;-75
2022/05/19 16:07:46;;;;;;;0.70;0.70;;;33.80;41.60;;;;;;4977026;28;20516;-74
2022/05/19 16:10:15;;;;;;;0.70;0.70;;;33.30;44.10;;;;;;4976999;28;20450;-74
2022/05/19 16:12:42;;;;;;;0.77;0.77;;;33.00;45.80;;;;;;4976824;28;20496;-74
2022/05/19 16:15:11;;;;;;;0.80;0.70;;;32.90;45.10;;;;;;4976714;28;20482;-74
2022/05/19 16:17:40;;;;;;;0.70;0.70;;;32.90;45.10;;;;;;4976933;28;20450;-74
2022/05/19 16:20:11;;;;;;;0.70;0.70;;;32.90;44.10;;;;;;4976792;28;20457;-74
2022/05/19 16:22:40;;;;;;;0.73;0.73;;;32.70;42.90;;;;;;4976621;28;20902;-73
2022/05/19 16:25:09;;;;;;;0.70;0.70;;;32.40;43.90;;;;;;4976522;28;20466;-73
2022/05/19 16:27:35;;;;;;;0.70;0.70;;;32.00;45.10;;;;;;4976747;28;20446;-73
2022/05/19 16:30:05;;;;;;;0.70;0.70;;;31.60;46.20;;;;;;4976396;28;20872;-73
2022/05/19 16:32:32;;;;;;;0.70;0.60;;;31.30;46.80;;;;;;4976384;28;20946;-73
2022/05/19 16:34:59;;;;;;;0.70;0.70;;;31.00;47.20;;;;;;4976220;28;20916;-73
2022/05/19 16:37:30;;;;;;;0.70;0.60;;;30.50;48.10;;;;;;4976663;28;20868;-73